createdAt,value
2023-01-30T00:01:26.799Z,46.70
2023-01-30T00:03:55.186Z,46.82
2023-01-30T00:06:24.151Z,46.92
2023-01-30T00:08:53.003Z,46.67
2023-01-30T00:11:22.769Z,46.72
2023-01-30T00:13:52.903Z,46.68
2023-01-30T00:16:21.187Z,46.75
2023-01-30T00:18:49.444Z,46.73
2023-01-30T00:21:17.926Z,46.70
2023-01-30T00:23:46.853Z,46.85
2023-01-30T00:26:15.228Z,46.87
2023-01-30T00:28:43.525Z,46.77
2023-01-30T00:31:13.214Z,46.78
2023-01-30T00:33:41.556Z,46.77
2023-01-30T00:36:11.774Z,47.01
2023-01-30T00:38:40.231Z,47.00
2023-01-30T00:41:10.736Z,47.31
2023-01-30T00:43:56.345Z,47.09
2023-01-30T00:46:48.076Z,47.34
2023-01-30T00:49:16.482Z,47.04
2023-01-30T00:51:44.766Z,47.53
2023-01-30T00:54:13.027Z,47.16
2023-01-30T00:56:41.305Z,47.27
2023-01-30T00:59:09.596Z,47.38
2023-01-30T01:01:39.273Z,47.59
2023-01-30T01:04:08.814Z,47.59
2023-01-30T01:06:37.506Z,47.16
2023-01-30T01:09:06.416Z,47.20
2023-01-30T01:11:35.495Z,47.29
2023-01-30T01:14:06.817Z,47.10
2023-01-30T01:16:36.533Z,47.08
2023-01-30T01:19:06.570Z,47.10
2023-01-30T01:21:34.880Z,47.06
2023-01-30T01:24:03.146Z,47.13
2023-01-30T01:26:31.444Z,47.21
2023-01-30T01:29:00.544Z,47.08
2023-01-30T01:31:29.102Z,47.37
2023-01-30T01:33:57.939Z,47.23
2023-01-30T01:36:53.176Z,47.19
2023-01-30T01:39:15.762Z,46.87
2023-01-30T01:41:43.052Z,46.82
2023-01-30T01:44:13.485Z,47.02
2023-01-30T01:46:46.453Z,47.28
2023-01-30T01:49:20.251Z,47.02
2023-01-30T01:51:56.813Z,47.30
2023-01-30T01:54:32.069Z,47.17
2023-01-30T01:57:04.236Z,47.27
2023-01-30T01:59:39.303Z,47.14
2023-01-30T02:02:12.318Z,46.91
2023-01-30T02:05:03.522Z,47.21
2023-01-30T02:07:39.448Z,46.86
2023-01-30T02:10:11.192Z,47.08
2023-01-30T02:12:40.507Z,47.20
2023-01-30T02:15:10.200Z,46.96
2023-01-30T02:17:38.506Z,47.05
2023-01-30T02:20:20.491Z,46.84
2023-01-30T02:23:36.505Z,46.80
2023-01-30T02:27:00.349Z,47.01
2023-01-30T02:30:21.093Z,46.95
2023-01-30T02:33:02.437Z,47.04
2023-01-30T02:35:42.924Z,47.13
2023-01-30T02:38:30.153Z,47.25
2023-01-30T02:41:10.911Z,47.23
2023-01-30T02:43:48.939Z,47.39
2023-01-30T02:46:23.525Z,47.43
2023-01-30T02:48:58.855Z,47.28
2023-01-30T02:51:31.956Z,47.45
2023-01-30T02:54:01.161Z,47.41
2023-01-30T02:56:29.537Z,47.31
2023-01-30T02:59:02.041Z,47.52
2023-01-30T03:02:00.793Z,47.38
2023-01-30T03:04:50.338Z,47.70
2023-01-30T03:07:34.920Z,47.42
2023-01-30T03:10:09.265Z,47.43
2023-01-30T03:12:50.087Z,47.74
2023-01-30T03:15:27.738Z,47.69
2023-01-30T03:17:57.757Z,47.52
2023-01-30T03:20:27.390Z,47.48
2023-01-30T03:22:56.234Z,47.72
2023-01-30T03:25:27.649Z,47.59
2023-01-30T03:27:57.281Z,47.80
2023-01-30T03:30:27.612Z,47.47
2023-01-30T03:32:55.885Z,47.60
2023-01-30T03:35:24.389Z,47.60
2023-01-30T03:37:54.233Z,47.85
2023-01-30T03:40:22.558Z,47.71
2023-01-30T03:42:50.831Z,47.73
2023-01-30T03:45:19.327Z,47.99
2023-01-30T03:47:47.904Z,47.79
2023-01-30T03:50:16.595Z,47.92
2023-01-30T03:52:44.896Z,47.98
2023-01-30T03:55:14.773Z,47.92
2023-01-30T03:57:43.117Z,47.96
2023-01-30T04:00:12.761Z,48.16
2023-01-30T04:02:41.107Z,48.03
2023-01-30T04:05:09.660Z,48.15
2023-01-30T04:07:37.905Z,48.03
2023-01-30T04:10:07.571Z,48.44
2023-01-30T04:12:37.224Z,48.39
2023-01-30T04:15:06.521Z,48.29
2023-01-30T04:17:34.798Z,48.46
2023-01-30T04:20:03.112Z,48.28
2023-01-30T04:22:31.443Z,48.41
2023-01-30T04:24:59.747Z,48.35
2023-01-30T04:27:28.034Z,48.56
2023-01-30T04:29:57.704Z,48.71
2023-01-30T04:32:27.565Z,48.69
2023-01-30T04:34:55.879Z,48.53
2023-01-30T04:37:24.120Z,48.75
2023-01-30T04:39:52.404Z,48.55
2023-01-30T04:42:20.693Z,48.64
2023-01-30T04:44:49.030Z,48.57
2023-01-30T04:47:19.029Z,48.71
2023-01-30T04:49:47.295Z,48.56
2023-01-30T04:52:15.556Z,48.51
2023-01-30T04:54:43.875Z,48.57
2023-01-30T04:57:12.183Z,48.52
2023-01-30T04:59:40.775Z,48.63
2023-01-30T05:02:09.117Z,48.42
2023-01-30T05:04:38.809Z,48.57
2023-01-30T05:07:07.078Z,48.34
2023-01-30T05:09:35.317Z,48.38
2023-01-30T05:12:03.551Z,48.33
2023-01-30T05:14:31.823Z,48.55
2023-01-30T05:17:00.153Z,48.28
2023-01-30T05:19:28.521Z,48.46
2023-01-30T05:21:58.165Z,48.49
2023-01-30T05:24:26.483Z,48.23
2023-01-30T05:26:54.695Z,48.50
2023-01-30T05:29:23.127Z,48.47
2023-01-30T05:31:51.428Z,48.22
2023-01-30T05:34:19.799Z,48.18
2023-01-30T05:36:48.028Z,48.51
2023-01-30T05:39:18.923Z,48.32
2023-01-30T05:41:47.279Z,48.20
2023-01-30T05:44:15.552Z,48.38
2023-01-30T05:46:43.882Z,48.30
2023-01-30T05:49:12.111Z,48.38
2023-01-30T05:51:40.385Z,48.40
2023-01-30T05:54:09.077Z,48.52
2023-01-30T05:56:38.687Z,48.24
2023-01-30T05:59:07.810Z,48.43
2023-01-30T06:01:36.073Z,48.51
2023-01-30T06:04:04.609Z,48.56
2023-01-30T06:06:32.832Z,48.61
2023-01-30T06:09:01.090Z,48.67
2023-01-30T06:11:29.529Z,48.95
2023-01-30T06:13:59.135Z,49.13
2023-01-30T06:16:27.409Z,49.00
2023-01-30T06:18:55.683Z,49.21
2023-01-30T06:21:23.964Z,49.37
2023-01-30T06:23:52.216Z,49.24
2023-01-30T06:26:20.496Z,49.30
2023-01-30T06:28:49.835Z,49.50
2023-01-30T06:31:19.484Z,49.55
2023-01-30T06:33:49.391Z,49.61
2023-01-30T06:36:17.655Z,49.33
2023-01-30T06:38:45.938Z,49.46
2023-01-30T06:41:14.184Z,49.42
2023-01-30T06:43:43.397Z,49.51
2023-01-30T06:46:11.742Z,49.36
2023-01-30T06:48:41.347Z,49.61
2023-01-30T06:51:09.629Z,49.53
2023-01-30T06:53:37.997Z,49.51
2023-01-30T06:56:06.792Z,49.63
2023-01-30T06:58:35.002Z,49.51
2023-01-30T07:01:03.397Z,49.52
2023-01-30T07:03:31.664Z,49.53
2023-01-30T07:06:01.327Z,49.58
2023-01-30T07:08:29.563Z,49.39
2023-01-30T07:10:57.828Z,49.54
2023-01-30T07:13:26.160Z,49.50
2023-01-30T07:15:54.476Z,49.62
2023-01-30T07:18:22.820Z,49.35
2023-01-30T07:20:51.447Z,49.47
2023-01-30T07:23:21.084Z,49.28
2023-01-30T07:25:49.380Z,49.34
2023-01-30T07:28:17.728Z,49.40
2023-01-30T07:30:46.052Z,49.33
2023-01-30T07:33:14.401Z,49.20
2023-01-30T07:35:42.638Z,49.59
2023-01-30T07:38:10.909Z,49.33
2023-01-30T07:40:40.803Z,49.60
2023-01-30T07:43:12.811Z,49.63
2023-01-30T07:45:43.445Z,49.75
2023-01-30T07:48:14.730Z,49.86
2023-01-30T07:50:43.344Z,49.61
2023-01-30T07:53:14.484Z,49.32
2023-01-30T07:55:44.263Z,49.14
2023-01-30T07:58:15.333Z,49.09
2023-01-30T08:00:43.774Z,49.05
2023-01-30T08:03:15.165Z,49.05
2023-01-30T08:05:44.073Z,48.84
2023-01-30T08:08:12.334Z,49.14
2023-01-30T08:10:40.690Z,48.90
2023-01-30T08:13:10.400Z,48.99
2023-01-30T08:15:38.701Z,49.14
2023-01-30T08:18:08.158Z,49.00
2023-01-30T08:20:37.279Z,48.80
2023-01-30T08:23:05.714Z,48.91
2023-01-30T08:25:35.416Z,48.69
2023-01-30T08:28:04.785Z,48.98
2023-01-30T08:30:34.520Z,48.48
2023-01-30T08:33:02.768Z,48.88
2023-01-30T08:35:31.016Z,49.05
2023-01-30T08:37:59.919Z,49.14
2023-01-30T08:40:28.481Z,49.27
2023-01-30T08:42:57.102Z,48.49
2023-01-30T08:45:25.441Z,48.73
2023-01-30T08:47:55.192Z,48.89
2023-01-30T08:50:23.473Z,48.86
2023-01-30T08:52:51.748Z,48.93
2023-01-30T08:55:20.911Z,48.51
2023-01-30T08:57:49.418Z,48.21
2023-01-30T09:00:19.278Z,48.51
2023-01-30T09:02:47.823Z,48.51
2023-01-30T09:05:17.822Z,48.33
2023-01-30T09:07:46.142Z,48.63
2023-01-30T09:10:14.436Z,48.20
2023-01-30T09:12:42.834Z,48.57
2023-01-30T09:15:12.273Z,48.27
2023-01-30T09:17:40.789Z,48.48
2023-01-30T09:20:11.924Z,48.13
2023-01-30T09:22:41.766Z,48.17
2023-01-30T09:25:11.010Z,48.20
2023-01-30T09:27:39.314Z,48.12
2023-01-30T09:30:09.681Z,48.56
2023-01-30T09:32:38.302Z,48.42
2023-01-30T09:35:08.504Z,48.30
2023-01-30T09:37:36.907Z,48.42
2023-01-30T09:40:08.683Z,48.60
2023-01-30T09:43:11.177Z,48.64
2023-01-30T09:45:53.915Z,48.87
2023-01-30T09:48:28.088Z,48.69
2023-01-30T09:51:38.833Z,49.05
2023-01-30T09:54:24.523Z,48.66
2023-01-30T09:57:21.078Z,48.45
2023-01-30T09:59:58.387Z,48.75
2023-01-30T10:02:45.992Z,48.45
2023-01-30T10:05:14.588Z,48.79
2023-01-30T10:08:16.891Z,48.46
2023-01-30T10:11:00.882Z,48.22
2023-01-30T10:13:57.414Z,48.42
2023-01-30T10:16:31.691Z,48.31
2023-01-30T10:19:35.990Z,48.47
2023-01-30T10:22:19.168Z,48.10
2023-01-30T10:24:58.741Z,47.75
2023-01-30T10:27:30.607Z,48.29
2023-01-30T10:30:04.714Z,47.91
2023-01-30T10:32:41.687Z,48.06
2023-01-30T10:35:19.427Z,48.20
2023-01-30T10:37:58.202Z,48.69
2023-01-30T10:40:33.727Z,48.73
2023-01-30T10:43:09.728Z,48.98
2023-01-30T10:45:48.826Z,48.63
2023-01-30T10:48:43.173Z,48.84
2023-01-30T10:51:29.136Z,48.57
2023-01-30T10:54:04.523Z,48.37
2023-01-30T10:56:43.586Z,47.96
2023-01-30T10:59:25.315Z,48.18
2023-01-30T11:02:02.501Z,47.92
2023-01-30T11:04:43.409Z,47.87
2023-01-30T11:07:13.782Z,47.72
2023-01-30T11:09:44.602Z,47.71
2023-01-30T11:12:13.894Z,47.66
2023-01-30T11:15:00.080Z,47.41
2023-01-30T11:17:37.168Z,47.58
2023-01-30T11:20:14.741Z,47.30
2023-01-30T11:22:52.390Z,47.34
2023-01-30T11:25:24.196Z,47.44
2023-01-30T11:27:58.744Z,47.57
2023-01-30T11:30:30.243Z,47.46
2023-01-30T11:33:14.743Z,47.27
2023-01-30T11:35:54.330Z,47.49
2023-01-30T11:38:26.048Z,47.85
2023-01-30T11:41:07.404Z,47.66
2023-01-30T11:43:39.498Z,47.43
2023-01-30T11:46:10.144Z,47.37
2023-01-30T11:49:05.556Z,47.58
2023-01-30T11:51:39.758Z,47.31
2023-01-30T11:54:14.336Z,47.50
2023-01-30T11:56:48.487Z,47.53
2023-01-30T11:59:26.699Z,47.64
2023-01-30T12:02:05.243Z,47.39
2023-01-30T12:04:35.230Z,47.54
2023-01-30T12:07:09.692Z,47.63
2023-01-30T12:09:41.037Z,47.50
2023-01-30T12:12:28.857Z,47.39
2023-01-30T12:15:08.397Z,47.47
2023-01-30T12:17:43.773Z,47.62
2023-01-30T12:20:23.621Z,47.69
2023-01-30T12:23:06.991Z,47.62
2023-01-30T12:25:42.878Z,47.71
2023-01-30T12:28:22.350Z,47.50
2023-01-30T12:30:56.477Z,47.83
2023-01-30T12:33:32.253Z,47.64
2023-01-30T12:36:15.130Z,47.65
2023-01-30T12:39:15.231Z,47.67
2023-01-30T12:42:20.158Z,47.87
2023-01-30T12:45:04.056Z,48.06
2023-01-30T12:47:52.421Z,47.82
2023-01-30T12:50:41.063Z,47.96
2023-01-30T12:53:32.633Z,48.53
2023-01-30T12:56:44.265Z,48.34
2023-01-30T12:59:22.979Z,48.45
2023-01-30T13:02:17.332Z,48.75
2023-01-30T13:05:04.638Z,48.89
2023-01-30T13:07:42.927Z,48.98
2023-01-30T13:10:20.973Z,48.91
2023-01-30T13:13:01.091Z,49.06
2023-01-30T13:15:37.984Z,49.47
2023-01-30T13:18:15.665Z,49.39
2023-01-30T13:20:56.060Z,49.33
2023-01-30T13:23:36.156Z,49.71
2023-01-30T13:26:09.282Z,49.50
2023-01-30T13:28:41.609Z,49.72
2023-01-30T13:31:13.902Z,49.81
2023-01-30T13:33:45.767Z,50.24
2023-01-30T13:36:19.131Z,50.08
2023-01-30T13:38:59.216Z,50.31
2023-01-30T13:41:33.935Z,50.23
2023-01-30T13:44:08.285Z,50.47
2023-01-30T13:46:40.038Z,50.55
2023-01-30T13:49:17.800Z,50.80
2023-01-30T13:51:50.906Z,51.42
2023-01-30T13:54:39.154Z,51.00
2023-01-30T13:57:23.175Z,51.06
2023-01-30T14:00:28.139Z,50.80
2023-01-30T14:03:32.767Z,51.13
2023-01-30T14:06:05.022Z,51.19
2023-01-30T14:08:41.105Z,52.06
2023-01-30T14:11:34.560Z,51.67
2023-01-30T14:14:20.976Z,51.68
2023-01-30T14:16:52.442Z,51.77
2023-01-30T14:19:30.800Z,51.95
2023-01-30T14:22:01.428Z,51.70
2023-01-30T14:24:31.608Z,51.40
2023-01-30T14:27:06.674Z,51.63
2023-01-30T14:29:57.553Z,51.57
2023-01-30T14:32:57.085Z,51.69
2023-01-30T14:35:28.222Z,51.70
2023-01-30T14:38:11.892Z,52.09
2023-01-30T14:41:05.690Z,51.69
2023-01-30T14:43:39.480Z,51.76
2023-01-30T14:46:55.102Z,51.89
2023-01-30T14:49:36.277Z,52.14
2023-01-30T14:52:05.643Z,52.03
2023-01-30T14:54:42.736Z,52.41
2023-01-30T14:57:24.949Z,52.09
2023-01-30T15:00:17.150Z,52.00
2023-01-30T15:02:53.056Z,52.11
2023-01-30T15:05:29.483Z,52.41
2023-01-30T15:08:06.604Z,52.56
2023-01-30T15:11:03.364Z,52.93
2023-01-30T15:13:53.560Z,52.75
2023-01-30T15:17:05.669Z,52.54
2023-01-30T15:19:57.151Z,53.39
2023-01-30T15:22:37.568Z,52.90
2023-01-30T15:25:39.263Z,52.81
2023-01-30T15:28:30.345Z,53.73
2023-01-30T15:31:10.339Z,53.11
2023-01-30T15:33:46.392Z,53.19
2023-01-30T15:36:38.877Z,52.77
2023-01-30T15:39:19.439Z,53.11
2023-01-30T15:41:47.800Z,53.01
2023-01-30T15:44:40.774Z,52.91
2023-01-30T15:47:31.252Z,53.12
2023-01-30T15:50:03.266Z,52.96
2023-01-30T15:52:44.406Z,53.49
2023-01-30T15:55:19.088Z,53.66
2023-01-30T15:57:52.711Z,53.27
2023-01-30T16:00:29.137Z,53.25
2023-01-30T16:02:58.824Z,53.06
2023-01-30T16:05:28.074Z,53.38
2023-01-30T16:07:59.997Z,53.04
2023-01-30T16:10:31.322Z,53.24
2023-01-30T16:13:04.339Z,53.24
2023-01-30T16:15:38.072Z,53.09
2023-01-30T16:18:21.620Z,52.65
2023-01-30T16:21:01.610Z,53.35
2023-01-30T16:23:36.685Z,52.93
2023-01-30T16:26:06.825Z,53.69
2023-01-30T16:28:35.349Z,53.13
2023-01-30T16:31:06.838Z,53.27
2023-01-30T16:33:37.105Z,53.32
2023-01-30T16:36:07.996Z,52.84
2023-01-30T16:38:43.189Z,52.82
2023-01-30T16:41:34.586Z,53.16
2023-01-30T16:44:18.527Z,53.18
2023-01-30T16:47:00.511Z,53.44
2023-01-30T16:49:48.791Z,53.52
2023-01-30T16:52:22.729Z,53.27
2023-01-30T16:54:55.064Z,53.50
2023-01-30T16:57:36.337Z,53.49
2023-01-30T17:00:20.843Z,53.56
2023-01-30T17:02:53.182Z,53.26
2023-01-30T17:05:24.075Z,53.32
2023-01-30T17:07:53.850Z,53.32
2023-01-30T17:10:55.523Z,53.66
2023-01-30T17:13:34.063Z,53.29
2023-01-30T17:16:34.441Z,52.99
2023-01-30T17:19:03.370Z,53.27
2023-01-30T17:21:45.159Z,53.07
2023-01-30T17:24:17.756Z,53.30
2023-01-30T17:26:50.576Z,52.80
2023-01-30T17:29:41.044Z,53.03
2023-01-30T17:32:13.192Z,53.28
2023-01-30T17:34:41.701Z,53.27
2023-01-30T17:37:15.804Z,53.23
2023-01-30T17:39:44.076Z,53.28
2023-01-30T17:42:15.256Z,52.95
2023-01-30T17:44:43.609Z,52.85
2023-01-30T17:47:13.231Z,53.02
2023-01-30T17:49:41.863Z,52.93
2023-01-30T17:52:10.450Z,53.15
2023-01-30T17:54:38.638Z,53.02
2023-01-30T17:57:09.731Z,52.89
2023-01-30T17:59:39.326Z,53.30
2023-01-30T18:02:10.768Z,53.51
2023-01-30T18:04:39.998Z,53.17
2023-01-30T18:07:14.208Z,53.21
2023-01-30T18:09:42.431Z,53.39
2023-01-30T18:12:10.697Z,53.43
2023-01-30T18:14:40.329Z,53.45
2023-01-30T18:17:08.661Z,53.33
2023-01-30T18:19:36.948Z,53.46
2023-01-30T18:22:05.207Z,52.93
2023-01-30T18:24:33.433Z,52.73
2023-01-30T18:27:02.031Z,53.01
2023-01-30T18:29:30.519Z,53.18
2023-01-30T18:32:04.984Z,53.03
2023-01-30T18:34:33.807Z,53.32
2023-01-30T18:37:02.062Z,53.35
2023-01-30T18:39:31.885Z,53.39
2023-01-30T18:42:02.098Z,53.33
2023-01-30T18:44:30.383Z,53.28
2023-01-30T18:47:00.090Z,53.08
2023-01-30T18:49:28.344Z,53.09
2023-01-30T18:51:56.611Z,52.86
2023-01-30T18:54:24.905Z,53.09
2023-01-30T18:56:53.152Z,53.25
2023-01-30T18:59:21.559Z,52.91
2023-01-30T19:01:49.961Z,53.23
2023-01-30T19:04:19.579Z,53.10
2023-01-30T19:06:47.947Z,52.90
2023-01-30T19:09:18.118Z,52.85
2023-01-30T19:12:03.708Z,52.77
2023-01-30T19:14:32.103Z,52.60
2023-01-30T19:17:00.332Z,52.52
2023-01-30T19:19:29.981Z,52.67
2023-01-30T19:21:58.200Z,52.89
2023-01-30T19:24:26.721Z,52.94
2023-01-30T19:26:55.061Z,52.63
2023-01-30T19:29:23.597Z,52.67
2023-01-30T19:31:51.889Z,52.64
2023-01-30T19:34:20.429Z,52.47
2023-01-30T19:36:50.070Z,52.55
2023-01-30T19:39:18.500Z,52.54
2023-01-30T19:41:46.825Z,52.65
2023-01-30T19:44:15.156Z,52.68
2023-01-30T19:46:43.936Z,52.38
2023-01-30T19:49:13.293Z,52.20
2023-01-30T19:51:41.844Z,52.55
2023-01-30T19:54:12.967Z,52.57
2023-01-30T19:56:42.581Z,52.27
2023-01-30T19:59:15.981Z,52.46
2023-01-30T20:01:44.450Z,52.21
2023-01-30T20:04:13.140Z,52.22
2023-01-30T20:06:44.755Z,52.51
2023-01-30T20:09:16.148Z,52.74
2023-01-30T20:11:44.733Z,52.29
2023-01-30T20:14:13.101Z,52.37
2023-01-30T20:16:41.941Z,52.16
2023-01-30T20:19:15.521Z,52.32
2023-01-30T20:21:44.573Z,52.63
2023-01-30T20:24:15.539Z,52.46
2023-01-30T20:26:48.250Z,52.45
2023-01-30T20:29:18.020Z,52.52
2023-01-30T20:31:46.639Z,52.38
2023-01-30T20:34:16.116Z,52.43
2023-01-30T20:36:44.441Z,52.61
2023-01-30T20:39:16.831Z,52.67
2023-01-30T20:41:45.223Z,52.51
2023-01-30T20:44:15.246Z,52.66
2023-01-30T20:46:45.972Z,52.33
2023-01-30T20:49:16.680Z,52.26
2023-01-30T20:51:46.677Z,52.46
2023-01-30T20:54:19.196Z,52.07
2023-01-30T20:56:50.042Z,52.18
2023-01-30T20:59:20.567Z,52.07
2023-01-30T21:01:48.839Z,52.32
2023-01-30T21:04:18.518Z,51.99
2023-01-30T21:06:47.381Z,51.89
2023-01-30T21:09:19.412Z,52.25
2023-01-30T21:11:48.783Z,52.13
2023-01-30T21:14:18.028Z,52.09
2023-01-30T21:16:46.804Z,52.20
2023-01-30T21:19:17.699Z,52.34
2023-01-30T21:21:50.776Z,51.92
2023-01-30T21:24:23.758Z,51.96
2023-01-30T21:26:52.842Z,52.07
2023-01-30T21:29:23.737Z,52.25
2023-01-30T21:31:52.418Z,52.19
2023-01-30T21:34:20.770Z,51.93
2023-01-30T21:37:09.778Z,52.08
2023-01-30T21:39:56.776Z,52.44
2023-01-30T21:42:42.653Z,52.49
2023-01-30T21:45:11.260Z,52.03
2023-01-30T21:47:39.921Z,51.93
2023-01-30T21:50:09.984Z,51.97
2023-01-30T21:52:38.914Z,51.88
2023-01-30T21:55:10.237Z,52.06
2023-01-30T21:57:38.981Z,51.99
2023-01-30T22:00:09.165Z,51.87
2023-01-30T22:02:37.528Z,52.16
2023-01-30T22:05:06.748Z,51.79
2023-01-30T22:07:35.232Z,51.96
2023-01-30T22:10:03.508Z,52.05
2023-01-30T22:12:33.226Z,51.93
2023-01-30T22:15:01.599Z,51.71
2023-01-30T22:17:29.974Z,51.85
2023-01-30T22:19:58.267Z,51.86
2023-01-30T22:22:26.751Z,51.92
2023-01-30T22:24:55.000Z,51.86
2023-01-30T22:27:23.287Z,52.07
2023-01-30T22:29:52.905Z,51.78
2023-01-30T22:32:21.176Z,52.17
2023-01-30T22:34:49.397Z,51.92
2023-01-30T22:37:17.712Z,52.04
2023-01-30T22:39:46.027Z,51.96
2023-01-30T22:42:14.483Z,51.76
2023-01-30T22:44:42.714Z,51.93
2023-01-30T22:47:12.386Z,51.85
2023-01-30T22:49:40.667Z,51.92
2023-01-30T22:52:08.862Z,51.89
2023-01-30T22:54:37.214Z,51.99
2023-01-30T22:57:05.565Z,51.86
2023-01-30T22:59:33.815Z,52.00
2023-01-30T23:02:02.276Z,51.97
2023-01-30T23:04:31.930Z,51.75
2023-01-30T23:07:00.674Z,51.87
2023-01-30T23:09:28.986Z,51.70
2023-01-30T23:12:16.193Z,51.70
2023-01-30T23:14:45.116Z,52.31
2023-01-30T23:17:30.816Z,51.97
2023-01-30T23:20:00.591Z,51.98
2023-01-30T23:22:29.703Z,52.26
2023-01-30T23:24:57.997Z,52.04
2023-01-30T23:27:26.336Z,51.71
2023-01-30T23:29:54.624Z,51.67
2023-01-30T23:32:23.767Z,51.69
2023-01-30T23:34:52.063Z,51.60
2023-01-30T23:37:42.802Z,51.61
2023-01-30T23:40:12.870Z,51.91
2023-01-30T23:42:41.117Z,51.85
2023-01-30T23:45:10.954Z,51.78
2023-01-30T23:47:39.281Z,51.98
2023-01-30T23:50:08.276Z,51.99
2023-01-30T23:52:37.842Z,51.50
2023-01-30T23:55:07.169Z,51.51
2023-01-30T23:57:35.398Z,51.76
